Time;durP1;ratioP1;P1;durP2;ratioP2;P2;SDS_P1;SDS_P2;PMS_P1;PMS_P2;Temp;Humidity;BMP_temperature;BMP_pressure;BME280_temperature;BME280_humidity;BME280_pressure;Samples;Min_cycle;Max_cycle;Signal;HPM_P1;HPM_P2
2022/10/27 00:01:15;;;;;;;15.23;9.93;;;;;;;13.60;100.00;101667.28;5061296;28;20049;-80
2022/10/27 00:03:41;;;;;;;16.55;9.45;;;;;;;13.60;100.00;101661.22;5058975;28;20045;-82
2022/10/27 00:06:07;;;;;;;17.65;9.75;;;;;;;13.55;100.00;101661.63;5051908;28;20071;-80
2022/10/27 00:08:34;;;;;;;13.73;9.13;;;;;;;13.54;100.00;101667.00;5042263;28;20443;-81
2022/10/27 00:11:04;;;;;;;14.23;9.15;;;;;;;13.50;100.00;101668.22;5048961;28;20039;-82
2022/10/27 00:13:30;;;;;;;21.40;9.98;;;;;;;13.45;100.00;101667.78;5060718;28;20040;-81
2022/10/27 00:16:02;;;;;;;19.55;9.15;;;;;;;13.42;100.00;101668.06;5059851;28;20054;-81
2022/10/27 00:18:27;;;;;;;15.88;10.45;;;;;;;13.41;100.00;101662.00;5058272;28;20033;-82
2022/10/27 00:21:09;;;;;;;16.13;8.90;;;;;;;13.37;100.00;101671.06;5055889;28;20102;-83
2022/10/27 00:23:35;;;;;;;13.80;9.00;;;;;;;13.38;100.00;101670.13;5047649;28;20117;-80
2022/10/27 00:26:01;;;;;;;19.33;9.43;;;;;;;13.37;100.00;101668.47;5053071;28;20531;-81
2022/10/27 00:28:27;;;;;;;15.50;9.45;;;;;;;13.36;100.00;101671.22;5057987;28;20133;-83
2022/10/27 00:31:01;;;;;;;14.68;8.65;;;;;;;13.43;100.00;101672.34;5055092;28;20041;-83
2022/10/27 00:33:27;;;;;;;12.88;8.45;;;;;;;13.46;100.00;101678.13;5051378;28;20037;-83
2022/10/27 00:35:52;;;;;;;15.15;8.15;;;;;;;13.40;100.00;101670.81;5054357;28;20033;-81
2022/10/27 00:38:18;;;;;;;11.10;8.60;;;;;;;13.39;100.00;101671.78;5054128;28;20044;-81
2022/10/27 00:40:43;;;;;;;14.02;7.63;;;;;;;13.35;100.00;101675.63;5048131;28;20033;-83
2022/10/27 00:43:26;;;;;;;11.90;8.23;;;;;;;13.29;100.00;101681.38;5057569;28;20617;-82
2022/10/27 00:45:55;;;;;;;13.13;8.27;;;;;;;13.28;100.00;101679.72;5053287;28;20502;-83
2022/10/27 00:48:23;;;;;;;13.85;8.88;;;;;;;13.21;100.00;101682.06;5055452;28;20441;-80
2022/10/27 00:50:48;;;;;;;15.40;8.73;;;;;;;13.14;100.00;101680.91;5042791;28;20028;-80
2022/10/27 00:53:14;;;;;;;15.20;8.80;;;;;;;13.08;100.00;101693.69;5051923;28;20043;-81
2022/10/27 00:55:40;;;;;;;12.35;8.88;;;;;;;13.04;100.00;101687.88;5047393;28;20438;-82
2022/10/27 00:58:09;;;;;;;16.88;9.32;;;;;;;13.01;100.00;101684.69;5047926;28;20040;-82
2022/10/27 01:00:38;;;;;;;16.00;8.73;;;;;;;12.95;100.00;101684.25;5052640;28;20434;-81
2022/10/27 01:03:06;;;;;;;14.35;9.05;;;;;;;12.92;100.00;101681.06;5062665;28;20640;-84
2022/10/27 01:05:33;;;;;;;14.10;8.80;;;;;;;12.93;100.00;101682.72;5056132;28;20043;-83
2022/10/27 01:08:01;;;;;;;13.27;9.63;;;;;;;12.94;100.00;101690.44;5053370;28;20456;-81
2022/10/27 01:10:27;;;;;;;14.80;9.65;;;;;;;12.95;100.00;101691.28;5050721;28;20075;-83
2022/10/27 01:12:54;;;;;;;16.17;10.35;;;;;;;13.06;100.00;101693.81;5047461;28;20076;-83
2022/10/27 01:15:23;;;;;;;22.27;10.90;;;;;;;13.16;100.00;101688.66;5061745;28;20036;-83
2022/10/27 01:18:01;;;;;;;18.17;10.43;;;;;;;13.18;100.00;101687.56;5065517;28;20473;-82
2022/10/27 01:20:45;;;;;;;18.20;10.77;;;;;;;13.10;100.00;101689.13;5052909;28;20094;-82
2022/10/27 01:23:34;;;;;;;20.77;11.10;;;;;;;13.03;100.00;101693.25;5040117;28;20480;-81
2022/10/27 01:26:31;;;;;;;18.17;10.57;;;;;;;12.98;100.00;101693.63;5047762;28;20491;-82
2022/10/27 01:29:05;;;;;;;;;;;;;;;12.89;100.00;101692.63;5039215;28;20056;-82
2022/10/27 01:31:37;;;;;;;16.90;11.18;;;;;;;12.89;100.00;101690.00;5054067;28;19919;-84
2022/10/27 01:34:20;;;;;;;22.92;11.13;;;;;;;12.90;100.00;101691.66;5050018;28;20195;-84
2022/10/27 01:36:53;;;;;;;17.38;10.23;;;;;;;12.91;100.00;101690.69;5048240;28;20476;-84
2022/10/27 01:39:28;;;;;;;17.63;11.10;;;;;;;12.91;100.00;101682.84;5054662;28;20025;-83
2022/10/27 01:42:11;;;;;;;18.40;10.65;;;;;;;12.92;100.00;101675.84;5048638;28;20131;-82
2022/10/27 01:44:45;;;;;;;14.60;10.35;;;;;;;12.88;100.00;101687.50;5039204;28;20062;-83
2022/10/27 01:47:12;;;;;;;17.55;9.85;;;;;;;12.84;100.00;101681.72;5053860;28;20036;-84
2022/10/27 01:49:39;;;;;;;17.98;10.63;;;;;;;12.84;100.00;101688.72;5057288;28;20036;-84
2022/10/27 01:52:07;;;;;;;16.50;10.45;;;;;;;12.79;100.00;101691.72;5047968;28;20143;-81
2022/10/27 01:54:35;;;;;;;12.27;9.43;;;;;;;12.75;100.00;101695.59;5058004;28;20035;-82
2022/10/27 01:57:11;;;;;;;13.30;9.18;;;;;;;12.71;100.00;101685.50;5049223;28;20125;-83
2022/10/27 01:59:56;;;;;;;16.05;10.52;;;;;;;12.68;100.00;101685.75;5049699;28;20056;-80
2022/10/27 02:02:34;;;;;;;17.58;10.25;;;;;;;12.65;100.00;101683.41;5054416;28;20408;-84
2022/10/27 02:05:05;;;;;;;15.23;10.20;;;;;;;12.62;100.00;101685.31;5069353;28;20173;-82
2022/10/27 02:07:49;;;;;;;17.02;9.80;;;;;;;12.60;100.00;101687.22;5067772;28;20107;-83
2022/10/27 02:10:16;;;;;;;15.07;9.52;;;;;;;12.56;100.00;101680.59;5062059;28;20103;-82
2022/10/27 02:12:43;;;;;;;20.38;10.05;;;;;;;12.56;100.00;101677.97;5068134;28;20155;-81
2022/10/27 02:15:45;;;;;;;13.13;9.23;;;;;;;12.55;100.00;101681.56;5067384;28;20369;-83
2022/10/27 02:18:26;;;;;;;17.02;9.50;;;;;;;12.54;100.00;101681.69;5067030;28;20138;-83
2022/10/27 02:20:58;;;;;;;14.18;9.52;;;;;;;12.57;100.00;101681.44;5067489;28;20538;-82
2022/10/27 02:23:23;;;;;;;14.50;8.77;;;;;;;12.64;100.00;101669.50;5068511;28;20037;-83
2022/10/27 02:26:02;;;;;;;13.75;9.45;;;;;;;12.63;100.00;101673.91;5065220;28;20326;-83
2022/10/27 02:28:35;;;;;;;12.13;8.02;;;;;;;12.70;100.00;101671.59;5068198;28;20078;-80
2022/10/27 02:31:02;;;;;;;13.88;9.13;;;;;;;12.76;100.00;101676.28;5068878;28;20510;-82
2022/10/27 02:33:27;;;;;;;13.52;8.95;;;;;;;12.78;100.00;101669.16;5067579;28;20046;-80
2022/10/27 02:35:55;;;;;;;16.95;8.65;;;;;;;12.93;100.00;101672.25;5067949;28;20036;-81
2022/10/27 02:38:20;;;;;;;10.38;8.10;;;;;;;13.02;100.00;101666.25;5067105;28;20024;-82
2022/10/27 02:43:18;;;;;;;11.52;7.50;;;;;;;12.82;100.00;101673.16;5064742;28;20052;-82
2022/10/27 02:45:44;;;;;;;11.68;7.80;;;;;;;12.77;100.00;101666.66;5067210;28;20027;-82
2022/10/27 02:48:09;;;;;;;13.93;8.90;;;;;;;12.70;100.00;101669.00;5067559;28;20465;-80
2022/10/27 02:50:35;;;;;;;8.00;6.65;;;;;;;12.64;100.00;101677.34;5046113;28;20033;-80
2022/10/27 02:53:00;;;;;;;11.82;8.35;;;;;;;12.61;100.00;101672.38;5060292;28;20032;-82
2022/10/27 02:55:25;;;;;;;13.65;8.50;;;;;;;12.56;100.00;101664.09;5067241;28;20110;-83
2022/10/27 02:57:51;;;;;;;12.48;8.00;;;;;;;12.52;100.00;101673.97;5066306;28;20414;-83
2022/10/27 03:00:16;;;;;;;12.77;8.23;;;;;;;12.49;100.00;101676.84;5065487;28;20326;-82
2022/10/27 03:02:42;;;;;;;14.23;8.25;;;;;;;12.51;100.00;101671.47;5067125;28;20064;-81
2022/10/27 03:05:08;;;;;;;17.85;8.68;;;;;;;12.49;100.00;101683.84;5066790;28;20107;-82
2022/10/27 03:07:33;;;;;;;14.43;7.95;;;;;;;12.49;100.00;101686.47;5053701;28;20184;-80
2022/10/27 03:09:58;;;;;;;14.27;7.97;;;;;;;12.46;100.00;101682.31;5068557;28;20028;-81
2022/10/27 03:12:24;;;;;;;18.98;8.63;;;;;;;12.43;100.00;101690.41;5063602;28;20032;-80
2022/10/27 03:14:49;;;;;;;12.10;7.13;;;;;;;12.42;100.00;101687.91;5058360;28;20430;-83
2022/10/27 03:17:15;;;;;;;15.60;8.30;;;;;;;12.37;100.00;101690.91;5068152;28;20029;-80
2022/10/27 03:19:40;;;;;;;18.48;8.57;;;;;;;12.35;100.00;101686.75;5067003;28;20043;-80
2022/10/27 03:22:05;;;;;;;10.20;7.93;;;;;;;12.32;100.00;101694.84;5067385;28;20031;-81
2022/10/27 03:24:31;;;;;;;12.07;8.82;;;;;;;12.30;100.00;101695.81;5067571;28;20111;-82
2022/10/27 03:26:56;;;;;;;17.50;8.30;;;;;;;12.29;100.00;101694.16;5048150;28;20028;-81
2022/10/27 03:29:22;;;;;;;12.35;7.15;;;;;;;12.22;100.00;101690.41;5059699;28;20040;-82
2022/10/27 03:31:48;;;;;;;15.02;8.63;;;;;;;12.21;100.00;101688.75;5068351;28;20100;-82
2022/10/27 03:34:13;;;;;;;14.18;8.52;;;;;;;12.19;100.00;101688.03;5067130;28;20459;-82
2022/10/27 03:36:38;;;;;;;11.77;8.32;;;;;;;12.23;100.00;101683.41;5066939;28;20020;-83
2022/10/27 03:39:04;;;;;;;16.25;9.02;;;;;;;12.26;100.00;101686.59;5067279;28;20089;-82
2022/10/27 03:41:29;;;;;;;16.33;8.18;;;;;;;12.29;100.00;101688.09;5045312;28;20052;-80
2022/10/27 03:43:55;;;;;;;15.20;9.13;;;;;;;12.22;100.00;101690.41;5045643;28;20042;-80
2022/10/27 03:46:20;;;;;;;11.63;8.27;;;;;;;12.24;100.00;101690.28;5047278;28;20028;-82
2022/10/27 03:48:45;;;;;;;9.35;7.50;;;;;;;12.21;100.00;101693.97;5045548;28;20334;-82
2022/10/27 03:51:11;;;;;;;11.60;7.18;;;;;;;12.21;100.00;101691.34;5046203;28;20169;-82
2022/10/27 03:53:36;;;;;;;9.63;7.28;;;;;;;12.19;100.00;101692.44;5046118;28;20020;-82
2022/10/27 03:56:02;;;;;;;13.30;8.05;;;;;;;12.14;100.00;101690.19;5031454;28;20481;-81
2022/10/27 03:58:27;;;;;;;10.25;7.82;;;;;;;12.13;100.00;101690.31;5054104;28;20721;-83
2022/10/27 04:00:53;;;;;;;13.18;7.13;;;;;;;12.13;100.00;101701.59;5056320;28;20029;-80
2022/10/27 04:03:18;;;;;;;17.83;7.55;;;;;;;12.07;100.00;101699.47;5046734;28;20104;-82
2022/10/27 04:05:48;;;;;;;10.65;6.97;;;;;;;12.03;100.00;101692.84;5047011;28;20033;-81
2022/10/27 04:08:13;;;;;;;10.77;7.07;;;;;;;12.03;100.00;101698.06;5047603;28;20330;-82
2022/10/27 04:10:38;;;;;;;9.32;7.43;;;;;;;12.05;100.00;101703.16;5047008;28;20264;-81
2022/10/27 04:13:04;;;;;;;9.18;6.72;;;;;;;12.09;100.00;101699.34;5044842;28;20522;-82
2022/10/27 04:15:29;;;;;;;11.13;7.00;;;;;;;12.19;100.00;101698.50;5046472;28;20037;-81
2022/10/27 04:17:57;;;;;;;10.65;6.50;;;;;;;12.43;100.00;101695.63;5046854;28;20443;-81
2022/10/27 04:20:23;;;;;;;11.15;6.70;;;;;;;12.67;100.00;101698.00;5047748;28;20400;-81
2022/10/27 04:22:48;;;;;;;10.00;5.47;;;;;;;12.75;100.00;101699.97;5045798;28;20033;-82
2022/10/27 04:25:14;;;;;;;10.73;6.32;;;;;;;12.82;100.00;101696.69;5048138;28;20024;-81
2022/10/27 04:27:39;;;;;;;14.65;7.38;;;;;;;12.93;100.00;101699.25;5043743;28;20352;-82
2022/10/27 04:30:05;;;;;;;12.75;5.97;;;;;;;12.88;100.00;101693.56;5044677;28;20033;-82
2022/10/27 04:32:30;;;;;;;10.55;5.57;;;;;;;12.73;100.00;101705.34;5045466;28;20032;-80
2022/10/27 04:34:56;;;;;;;11.95;6.18;;;;;;;12.60;100.00;101704.69;5045534;28;20029;-83
2022/10/27 04:37:21;;;;;;;12.80;5.50;;;;;;;12.55;100.00;101707.69;5045730;28;20408;-81
2022/10/27 04:39:46;;;;;;;13.45;5.18;;;;;;;12.79;100.00;101707.41;5047600;28;20086;-83
2022/10/27 04:42:12;;;;;;;10.45;4.95;;;;;;;12.96;100.00;101701.59;5047356;28;20040;-83
2022/10/27 04:44:37;;;;;;;10.07;5.03;;;;;;;13.07;100.00;101705.09;5055744;28;20456;-83
2022/10/27 04:47:03;;;;;;;9.07;4.13;;;;;;;13.00;100.00;101717.03;5067188;28;20032;-82
2022/10/27 04:49:29;;;;;;;14.50;6.10;;;;;;;12.89;100.00;101717.94;5066704;28;20472;-82
2022/10/27 04:51:54;;;;;;;17.02;6.00;;;;;;;12.81;100.00;101717.75;5066373;28;20037;-83
2022/10/27 04:54:20;;;;;;;7.57;5.20;;;;;;;12.75;100.00;101711.28;5067618;28;20549;-80
2022/10/27 04:56:45;;;;;;;8.02;5.45;;;;;;;12.75;100.00;101721.72;5065190;28;20047;-81
2022/10/27 04:59:11;;;;;;;9.73;4.97;;;;;;;12.68;100.00;101723.19;5060990;28;20037;-82
2022/10/27 05:01:36;;;;;;;11.50;5.72;;;;;;;12.62;100.00;101727.16;5061003;28;20047;-82
2022/10/27 05:04:01;;;;;;;9.57;5.20;;;;;;;12.54;100.00;101728.72;5066216;28;20107;-82
2022/10/27 05:06:27;;;;;;;8.95;5.53;;;;;;;12.54;100.00;101732.19;5069207;28;20027;-83
2022/10/27 05:08:52;;;;;;;11.55;5.22;;;;;;;12.50;100.00;101730.78;5069247;28;20376;-81
2022/10/27 05:11:18;;;;;;;10.80;6.75;;;;;;;12.53;100.00;101727.06;5068784;28;20032;-82
2022/10/27 05:13:43;;;;;;;5.53;5.03;;;;;;;12.57;100.00;101731.94;5059959;22;20053;-82
2022/10/27 05:16:09;;;;;;;7.93;5.65;;;;;;;12.54;100.00;101731.34;5048205;28;20295;-83
2022/10/27 05:18:34;;;;;;;10.63;5.40;;;;;;;12.69;100.00;101732.69;5046533;28;20033;-82
2022/10/27 05:20:59;;;;;;;10.73;5.25;;;;;;;12.76;100.00;101733.81;5048002;28;20637;-82
2022/10/27 05:23:25;;;;;;;9.65;5.10;;;;;;;12.82;100.00;101735.94;5049682;28;20021;-82
2022/10/27 05:25:55;;;;;;;12.75;5.43;;;;;;;12.94;100.00;101736.69;5048510;28;20055;-81
2022/10/27 05:28:20;;;;;;;7.05;5.03;;;;;;;12.84;100.00;101734.00;5042534;28;20033;-81
2022/10/27 05:30:46;;;;;;;10.07;5.40;;;;;;;12.74;100.00;101734.94;5044443;28;20364;-82
2022/10/27 05:33:12;;;;;;;12.23;5.45;;;;;;;12.74;100.00;101741.00;5044649;28;20017;-81
2022/10/27 05:35:37;;;;;;;8.43;5.40;;;;;;;12.68;100.00;101740.69;5031089;28;20325;-80
2022/10/27 05:38:02;;;;;;;7.65;4.88;;;;;;;12.58;100.00;101743.22;5050520;28;20033;-81
2022/10/27 05:40:33;;;;;;;12.02;5.25;;;;;;;12.50;100.00;101751.69;5033054;28;20028;-81
2022/10/27 05:43:00;;;;;;;8.98;5.32;;;;;;;12.44;100.00;101754.78;5051171;28;20102;-81
2022/10/27 05:45:26;;;;;;;11.82;5.47;;;;;;;12.32;100.00;101749.72;5051377;28;20216;-81
2022/10/27 05:47:58;;;;;;;8.32;4.57;;;;;;;12.27;100.00;101756.19;5051364;28;20040;-80
2022/10/27 05:50:25;;;;;;;8.82;5.50;;;;;;;12.21;100.00;101754.06;5045719;28;20483;-82
2022/10/27 05:52:56;;;;;;;14.05;5.93;;;;;;;12.19;100.00;101761.19;5029735;28;20116;-81
2022/10/27 05:55:23;;;;;;;9.13;5.65;;;;;;;12.18;100.00;101756.94;5042652;28;20044;-81
2022/10/27 05:58:00;;;;;;;12.80;7.38;;;;;;;12.23;100.00;101762.63;5045293;28;20021;-82
2022/10/27 06:00:29;;;;;;;13.23;6.05;;;;;;;12.36;100.00;101767.66;5034984;28;20052;-81
2022/10/27 06:03:00;;;;;;;9.40;5.65;;;;;;;12.47;100.00;101767.63;5051624;28;20029;-81
2022/10/27 06:05:27;;;;;;;9.85;5.15;;;;;;;12.65;100.00;101765.28;5053562;28;20029;-81
2022/10/27 06:07:52;;;;;;;9.82;4.95;;;;;;;12.85;100.00;101767.06;5063044;28;20035;-81
2022/10/27 06:10:18;;;;;;;7.70;3.90;;;;;;;13.05;100.00;101775.03;5050764;28;20021;-81
2022/10/27 06:12:43;;;;;;;11.55;4.13;;;;;;;13.14;100.00;101775.09;5045901;28;20028;-81
2022/10/27 06:15:09;;;;;;;10.23;4.18;;;;;;;13.18;100.00;101770.47;5047979;28;20504;-81
2022/10/27 06:17:35;;;;;;;11.07;4.40;;;;;;;13.13;100.00;101772.63;5051154;28;20424;-81
2022/10/27 06:20:00;;;;;;;9.45;4.30;;;;;;;13.10;100.00;101775.50;5051322;28;20136;-81
2022/10/27 06:22:26;;;;;;;7.63;3.38;;;;;;;13.24;100.00;101777.78;5051487;28;20022;-82
2022/10/27 06:24:51;;;;;;;6.40;5.22;;;;;;;13.31;100.00;101776.31;5051264;28;20407;-82
2022/10/27 06:27:16;;;;;;;8.80;4.10;;;;;;;13.17;100.00;101781.91;5051110;28;20329;-82
2022/10/27 06:29:42;;;;;;;12.73;4.97;;;;;;;13.12;100.00;101782.25;5051285;28;20052;-81
2022/10/27 06:32:07;;;;;;;7.35;3.90;;;;;;;13.31;100.00;101778.09;5051116;28;20096;-81
2022/10/27 06:34:33;;;;;;;8.48;4.43;;;;;;;13.38;100.00;101785.28;5051116;28;20104;-81
2022/10/27 06:36:58;;;;;;;7.97;5.40;;;;;;;13.29;100.00;101783.44;5051430;28;20036;-80
2022/10/27 06:39:23;;;;;;;8.70;5.10;;;;;;;13.23;100.00;101784.00;5051556;28;20432;-82
2022/10/27 06:41:49;;;;;;;7.40;5.60;;;;;;;13.25;100.00;101793.34;5051175;28;20102;-82
2022/10/27 06:44:14;;;;;;;13.15;5.50;;;;;;;13.21;100.00;101791.16;5051320;28;20487;-81
2022/10/27 06:46:39;;;;;;;11.02;5.47;;;;;;;13.18;100.00;101799.25;5051130;28;20024;-81
2022/10/27 06:49:05;;;;;;;7.40;5.03;;;;;;;13.26;100.00;101799.41;5050962;28;20024;-81
2022/10/27 06:51:31;;;;;;;10.45;4.90;;;;;;;13.34;100.00;101802.22;5050636;28;20028;-82
2022/10/27 06:53:56;;;;;;;7.32;3.63;;;;;;;13.40;100.00;101804.31;5050470;28;20103;-82
2022/10/27 06:56:22;;;;;;;6.10;4.10;;;;;;;13.46;100.00;101803.81;5050611;28;20031;-82
2022/10/27 06:58:48;;;;;;;9.32;4.80;;;;;;;13.49;100.00;101802.72;5049504;28;20088;-82
2022/10/27 07:01:13;;;;;;;9.50;4.68;;;;;;;13.56;100.00;101804.69;5050220;28;20083;-81
2022/10/27 07:03:39;;;;;;;11.57;5.35;;;;;;;13.60;100.00;101803.47;5049538;28;20101;-82
2022/10/27 07:06:05;;;;;;;9.88;4.57;;;;;;;13.67;100.00;101803.75;5049710;28;20425;-82
2022/10/27 07:08:31;;;;;;;7.18;3.72;;;;;;;13.75;100.00;101805.69;5050035;28;20331;-81
2022/10/27 07:10:56;;;;;;;5.20;3.28;;;;;;;13.94;100.00;101811.84;5050062;28;20025;-80
2022/10/27 07:13:22;;;;;;;7.55;2.83;;;;;;;14.10;100.00;101810.50;5050285;28;20314;-82
2022/10/27 07:15:47;;;;;;;2.65;2.00;;;;;;;14.24;100.00;101805.69;5049893;28;20096;-82
2022/10/27 07:18:13;;;;;;;8.27;4.03;;;;;;;14.29;100.00;101803.47;5049643;28;20096;-82
2022/10/27 07:20:39;;;;;;;10.40;4.95;;;;;;;14.22;100.00;101804.97;5049517;28;20100;-82
2022/10/27 07:23:05;;;;;;;13.90;8.13;;;;;;;14.10;100.00;101800.03;5049630;28;20032;-81
2022/10/27 07:25:33;;;;;;;10.68;7.72;;;;;;;14.05;100.00;101807.44;5049413;28;20168;-82
2022/10/27 07:28:00;;;;;;;14.30;8.88;;;;;;;14.06;100.00;101816.97;5049594;28;20040;-82
2022/10/27 07:30:28;;;;;;;12.05;6.57;;;;;;;14.07;100.00;101816.84;5031422;28;20083;-83
2022/10/27 07:32:55;;;;;;;14.65;6.53;;;;;;;14.14;100.00;101820.59;5049010;28;20029;-82
2022/10/27 07:35:21;;;;;;;10.15;5.57;;;;;;;14.19;100.00;101826.22;5049534;28;20483;-81
2022/10/27 07:37:47;;;;;;;12.07;6.78;;;;;;;14.22;100.00;101822.50;5049869;28;20048;-82
2022/10/27 07:40:14;;;;;;;9.00;5.50;;;;;;;14.27;100.00;101828.16;5048941;28;20096;-81
2022/10/27 07:42:48;;;;;;;9.55;4.95;;;;;;;14.32;100.00;101825.97;5048770;28;20070;-82
2022/10/27 07:45:16;;;;;;;7.95;5.18;;;;;;;14.38;100.00;101819.38;5049359;28;20507;-82
2022/10/27 07:47:46;;;;;;;6.32;4.20;;;;;;;14.44;100.00;101830.16;5048972;28;20111;-81
2022/10/27 07:50:12;;;;;;;8.68;3.80;;;;;;;14.52;100.00;101829.50;5048810;28;20037;-82
2022/10/27 07:52:46;;;;;;;6.38;4.18;;;;;;;14.58;100.00;101831.56;5048770;28;20021;-80
2022/10/27 07:55:13;;;;;;;14.52;3.95;;;;;;;14.62;100.00;101829.50;5048805;28;20067;-82
2022/10/27 07:57:40;;;;;;;8.68;3.05;;;;;;;14.68;100.00;101835.00;5048795;28;20032;-81
2022/10/27 08:00:08;;;;;;;4.80;3.75;;;;;;;14.72;100.00;101831.13;5048618;28;20033;-81
2022/10/27 08:02:33;;;;;;;8.43;3.03;;;;;;;14.80;100.00;101835.69;5049118;28;20018;-82
2022/10/27 08:04:59;;;;;;;4.43;2.75;;;;;;;14.87;100.00;101840.25;5049255;28;20527;-81
2022/10/27 08:07:24;;;;;;;5.63;3.67;;;;;;;14.96;100.00;101840.38;5048736;28;20017;-82
2022/10/27 08:09:50;;;;;;;9.02;6.13;;;;;;;14.93;100.00;101838.88;5048445;28;20360;-82
2022/10/27 08:12:16;;;;;;;9.57;3.38;;;;;;;14.99;100.00;101832.22;5048503;28;20519;-82
2022/10/27 08:14:41;;;;;;;7.80;2.22;;;;;;;15.26;100.00;101837.56;5048655;28;20128;-82
2022/10/27 08:17:06;;;;;;;6.47;1.48;;;;;;;15.60;100.00;101838.72;5048865;28;20102;-82
2022/10/27 08:19:32;;;;;;;6.10;1.33;;;;;;;15.76;100.00;101835.50;5030638;28;20067;-82
2022/10/27 08:21:57;;;;;;;7.18;1.60;;;;;;;15.73;100.00;101840.19;5030040;28;20117;-83
2022/10/27 08:24:22;;;;;;;4.40;0.90;;;;;;;15.93;100.00;101836.53;5048854;28;20060;-82
2022/10/27 08:26:48;;;;;;;3.50;1.25;;;;;;;16.02;100.00;101835.66;5048183;28;20021;-82
2022/10/27 08:29:13;;;;;;;2.88;1.60;;;;;;;16.08;100.00;101835.03;5048051;28;20052;-82
2022/10/27 08:31:39;;;;;;;3.17;1.25;;;;;;;16.19;100.00;101836.63;5030491;28;20032;-83
2022/10/27 08:34:04;;;;;;;3.67;0.80;;;;;;;16.27;100.00;101824.41;5048691;28;20025;-82
2022/10/27 08:36:31;;;;;;;7.07;1.38;;;;;;;16.26;100.00;101828.00;5047901;28;20112;-83
2022/10/27 08:38:57;;;;;;;2.60;1.00;;;;;;;16.36;100.00;101829.75;5048800;28;20314;-84
2022/10/27 08:42:04;;;;;;;7.25;2.42;;;;;;;16.30;100.00;101833.81;5051790;28;20036;-79
2022/10/27 08:45:02;;;;;;;3.40;2.00;;;;;;;16.21;100.00;101835.53;5024624;28;20049;-79
2022/10/27 08:47:27;;;;;;;6.63;1.90;;;;;;;16.40;100.00;101829.31;5030055;28;20041;-79
2022/10/27 08:50:15;;;;;;;4.20;1.00;;;;;;;16.51;100.00;101837.00;5050507;28;20390;-79
2022/10/27 08:52:50;;;;;;;3.75;1.20;;;;;;;16.63;100.00;101827.03;5050444;28;20557;-80
2022/10/27 08:55:24;;;;;;;4.40;1.27;;;;;;;16.66;100.00;101831.22;5050106;28;20032;-80
2022/10/27 08:58:10;;;;;;;4.65;1.40;;;;;;;16.77;100.00;101831.81;5050222;28;20033;-80
2022/10/27 09:00:48;;;;;;;5.38;1.33;;;;;;;17.00;100.00;101826.91;5050284;28;20040;-80
2022/10/27 09:04:07;;;;;;;5.45;1.33;;;;;;;16.94;100.00;101832.78;5050184;28;20029;-79
2022/10/27 09:06:37;;;;;;;5.95;1.33;;;;;;;16.96;100.00;101830.00;4987987;28;20038;-79
2022/10/27 09:09:15;;;;;;;2.75;1.40;;;;;;;17.02;100.00;101830.19;4987657;28;20093;-79
2022/10/27 09:11:57;;;;;;;9.10;1.10;;;;;;;17.00;100.00;101831.34;4987808;28;20050;-81
2022/10/27 09:14:40;;;;;;;2.85;0.90;;;;;;;16.97;100.00;101826.38;4987965;28;20069;-80
2022/10/27 09:17:13;;;;;;;3.65;1.58;;;;;;;17.10;100.00;101829.41;4987956;28;20068;-80
2022/10/27 09:19:49;;;;;;;4.03;1.00;;;;;;;17.33;100.00;101829.75;4987985;28;20060;-80
2022/10/27 09:22:18;;;;;;;2.65;0.70;;;;;;;17.36;100.00;101827.63;4971709;28;20049;-80
2022/10/27 09:24:49;;;;;;;4.25;1.13;;;;;;;17.57;100.00;101830.69;4971460;28;20383;-80
2022/10/27 09:27:15;;;;;;;3.08;1.05;;;;;;;17.64;100.00;101835.34;4987583;28;20524;-79
2022/10/27 09:29:41;;;;;;;5.03;0.70;;;;;;;17.47;100.00;101829.19;4987596;28;20102;-79
2022/10/27 09:32:17;;;;;;;4.25;1.35;;;;;;;17.36;100.00;101822.34;4987438;28;20058;-80
2022/10/27 09:34:57;;;;;;;3.65;0.60;;;;;;;17.68;100.00;101826.16;4987637;28;20030;-80
2022/10/27 09:37:22;;;;;;;5.20;0.77;;;;;;;17.86;100.00;101824.28;5019336;28;20041;-80
2022/10/27 09:39:50;;;;;;;3.92;1.33;;;;;;;18.09;99.24;101824.50;5049473;28;20570;-80
2022/10/27 09:42:16;;;;;;;4.50;0.60;;;;;;;18.03;100.00;101828.59;5049534;28;20025;-80
2022/10/27 09:44:46;;;;;;;3.35;0.73;;;;;;;17.95;100.00;101825.97;5049215;28;20029;-80
2022/10/27 09:47:12;;;;;;;4.32;0.60;;;;;;;18.14;100.00;101830.94;5031205;28;20061;-80
2022/10/27 09:49:39;;;;;;;4.28;1.05;;;;;;;18.28;98.99;101833.94;5049333;28;20140;-80
2022/10/27 09:52:39;;;;;;;3.58;0.63;;;;;;;18.12;96.27;101829.44;5049449;28;20025;-80
2022/10/27 09:55:05;;;;;;;2.78;0.73;;;;;;;18.11;100.00;101823.34;5032857;28;20387;-80
2022/10/27 09:57:37;;;;;;;4.00;0.82;;;;;;;18.49;95.62;101823.72;5049283;28;20025;-81
2022/10/27 10:00:24;;;;;;;3.85;0.70;;;;;;;18.54;96.70;101824.06;5031465;28;20385;-80
2022/10/27 10:03:20;;;;;;;4.28;0.60;;;;;;;18.37;92.02;101825.06;5047370;28;21662;-81
2022/10/27 10:05:56;;;;;;;5.75;0.68;;;;;;;18.39;98.29;101831.00;5027824;28;20048;-80
2022/10/27 10:08:22;;;;;;;3.28;0.50;;;;;;;18.43;97.96;101821.78;5047930;28;20037;-80
2022/10/27 10:10:57;;;;;;;2.05;0.50;;;;;;;18.42;97.51;101820.94;5044487;28;20060;-79
2022/10/27 10:13:23;;;;;;;1.75;0.50;;;;;;;18.46;98.35;101816.16;5046195;28;20492;-80
2022/10/27 10:16:05;;;;;;;1.95;0.80;;;;;;;18.42;95.49;101814.84;5047467;28;20029;-79
2022/10/27 10:18:31;;;;;;;2.58;0.50;;;;;;;18.53;96.19;101820.63;5046041;28;20182;-80
2022/10/27 10:21:04;;;;;;;2.67;0.65;;;;;;;18.58;96.30;101820.13;5048376;28;20472;-79
2022/10/27 10:23:50;;;;;;;1.38;0.70;;;;;;;18.75;90.21;101815.72;5046237;28;20056;-79
2022/10/27 10:26:22;;;;;;;1.70;0.50;;;;;;;18.82;94.48;101811.41;5028567;28;20040;-79
2022/10/27 10:28:51;;;;;;;3.60;0.60;;;;;;;18.73;95.22;101818.53;5043119;28;20039;-80
2022/10/27 10:31:25;;;;;;;3.25;0.82;;;;;;;18.70;95.25;101810.94;5029968;28;20033;-80
2022/10/27 10:33:54;;;;;;;3.47;1.15;;;;;;;18.67;97.11;101813.91;5047133;28;20110;-79
2022/10/27 10:36:28;;;;;;;2.05;0.50;;;;;;;18.58;95.40;101810.38;5046382;28;20025;-80
2022/10/27 10:38:58;;;;;;;6.07;0.88;;;;;;;18.58;97.32;101802.47;5028706;28;20496;-79
2022/10/27 10:41:25;;;;;;;2.30;0.57;;;;;;;18.58;99.33;101801.66;5046837;28;20039;-79
2022/10/27 10:44:10;;;;;;;1.65;0.63;;;;;;;18.51;94.44;101812.03;5047144;28;20094;-79
2022/10/27 10:46:39;;;;;;;5.00;1.00;;;;;;;18.67;95.94;101808.63;5046395;28;20163;-79
2022/10/27 10:49:18;;;;;;;2.60;0.57;;;;;;;18.84;92.83;101799.72;5047424;28;20099;-79
2022/10/27 10:51:50;;;;;;;4.28;0.50;;;;;;;18.82;93.58;101796.41;5046722;28;20037;-80
2022/10/27 10:54:24;;;;;;;3.53;0.50;;;;;;;18.94;93.33;101796.03;5046921;28;20028;-80
2022/10/27 10:56:54;;;;;;;5.20;0.70;;;;;;;19.30;89.48;101788.56;5028424;28;20118;-79
2022/10/27 10:59:26;;;;;;;3.72;1.00;;;;;;;19.44;90.08;101793.94;5045503;28;20044;-79
2022/10/27 11:01:52;;;;;;;8.93;0.75;;;;;;;19.40;91.21;101779.41;5047550;28;20175;-79
2022/10/27 11:04:22;;;;;;;3.72;0.60;;;;;;;19.40;90.86;101786.53;5046364;28;20108;-80
2022/10/27 11:07:03;;;;;;;2.55;0.82;;;;;;;19.58;86.13;101778.41;5047900;28;20115;-80
2022/10/27 11:09:52;;;;;;;3.50;0.93;;;;;;;19.68;87.23;101771.09;5045284;28;20493;-79
2022/10/27 11:12:30;;;;;;;3.47;1.05;;;;;;;19.74;88.02;101771.22;5046062;28;20065;-79
2022/10/27 11:15:00;;;;;;;2.85;0.85;;;;;;;19.73;89.38;101771.41;5044785;28;20041;-80
2022/10/27 11:17:27;;;;;;;2.30;1.20;;;;;;;19.68;92.14;101768.44;5044835;28;20029;-79
2022/10/27 11:19:53;;;;;;;4.10;1.00;;;;;;;19.63;91.90;101768.13;5046195;28;20064;-79
2022/10/27 11:22:20;;;;;;;5.07;0.90;;;;;;;19.83;89.81;101758.78;5033434;28;20111;-79
2022/10/27 11:24:58;;;;;;;8.80;0.90;;;;;;;20.03;88.01;101769.72;5027890;28;20424;-79
2022/10/27 11:27:29;;;;;;;2.83;0.68;;;;;;;19.97;89.58;101759.84;5061289;28;20045;-80